sensor_id;sensor_type;location;lat;lon;timestamp;temperature;humidity
18305;DHT22;9278;52.156;21.048;2022-12-11T12:16:19;-2.30;1.00
18305;DHT22;9278;52.156;21.048;2022-12-11T12:19:15;-2.20;1.00
18305;DHT22;9278;52.156;21.048;2022-12-11T12:21:50;-2.40;1.00
18305;DHT22;9278;52.156;21.048;2022-12-11T12:24:28;-2.50;1.00
18305;DHT22;9278;52.156;21.048;2022-12-11T12:27:09;-2.50;1.00
18305;DHT22;9278;52.156;21.048;2022-12-11T12:30:03;-2.60;1.00
18305;DHT22;9278;52.156;21.048;2022-12-11T12:32:42;-2.70;1.00
18305;DHT22;9278;52.156;21.048;2022-12-11T12:35:31;-2.60;1.00
18305;DHT22;9278;52.156;21.048;2022-12-11T12:38:06;-2.70;1.00
18305;DHT22;9278;52.156;21.048;2022-12-11T12:40:44;-2.70;1.00
18305;DHT22;9278;52.156;21.048;2022-12-11T12:43:33;-2.60;1.00
18305;DHT22;9278;52.156;21.048;2022-12-11T12:46:13;-2.60;1.00
18305;DHT22;9278;52.156;21.048;2022-12-11T12:48:50;-2.60;1.00
18305;DHT22;9278;52.156;21.048;2022-12-11T12:51:20;-2.20;1.00
18305;DHT22;9278;52.156;21.048;2022-12-11T12:53:53;-2.40;1.00
18305;DHT22;9278;52.156;21.048;2022-12-11T12:56:23;-2.50;1.00
18305;DHT22;9278;52.156;21.048;2022-12-11T12:58:51;-2.20;1.00
18305;DHT22;9278;52.156;21.048;2022-12-11T13:01:22;-2.20;1.00
18305;DHT22;9278;52.156;21.048;2022-12-11T13:03:56;-2.20;1.00
18305;DHT22;9278;52.156;21.048;2022-12-11T13:06:33;-2.30;1.00
18305;DHT22;9278;52.156;21.048;2022-12-11T13:09:12;-2.40;1.00
18305;DHT22;9278;52.156;21.048;2022-12-11T13:11:42;-2.50;1.00
18305;DHT22;9278;52.156;21.048;2022-12-11T13:14:24;-2.40;1.00
18305;DHT22;9278;52.156;21.048;2022-12-11T13:17:06;-2.60;1.00
18305;DHT22;9278;52.156;21.048;2022-12-11T13:19:36;-2.70;1.00
18305;DHT22;9278;52.156;21.048;2022-12-11T13:22:20;-2.70;1.00
18305;DHT22;9278;52.156;21.048;2022-12-11T13:24:57;-2.60;1.00
18305;DHT22;9278;52.156;21.048;2022-12-11T13:27:37;-2.60;1.00
18305;DHT22;9278;52.156;21.048;2022-12-11T13:30:07;-2.50;1.00
18305;DHT22;9278;52.156;21.048;2022-12-11T13:32:55;-2.60;1.00
18305;DHT22;9278;52.156;21.048;2022-12-11T13:35:27;-2.70;1.00
18305;DHT22;9278;52.156;21.048;2022-12-11T13:38:02;-2.70;1.00
18305;DHT22;9278;52.156;21.048;2022-12-11T13:40:37;-2.70;1.00
18305;DHT22;9278;52.156;21.048;2022-12-11T13:43:14;-2.70;1.00
18305;DHT22;9278;52.156;21.048;2022-12-11T13:45:47;-2.70;1.00
18305;DHT22;9278;52.156;21.048;2022-12-11T13:48:23;-2.70;1.00
18305;DHT22;9278;52.156;21.048;2022-12-11T13:50:55;-2.90;1.00
18305;DHT22;9278;52.156;21.048;2022-12-11T13:53:24;-2.90;1.00
18305;DHT22;9278;52.156;21.048;2022-12-11T13:55:56;-2.90;1.00
18305;DHT22;9278;52.156;21.048;2022-12-11T13:58:26;-3.00;1.00
18305;DHT22;9278;52.156;21.048;2022-12-11T14:01:02;-2.80;1.00
18305;DHT22;9278;52.156;21.048;2022-12-11T14:03:31;-2.70;1.00
18305;DHT22;9278;52.156;21.048;2022-12-11T14:06:02;-2.80;1.00
18305;DHT22;9278;52.156;21.048;2022-12-11T14:08:33;-2.90;1.00
18305;DHT22;9278;52.156;21.048;2022-12-11T14:11:02;-2.80;1.00
18305;DHT22;9278;52.156;21.048;2022-12-11T14:13:33;-2.90;1.00
18305;DHT22;9278;52.156;21.048;2022-12-11T14:16:02;-3.00;1.00
18305;DHT22;9278;52.156;21.048;2022-12-11T14:18:32;-2.90;1.00
18305;DHT22;9278;52.156;21.048;2022-12-11T14:21:04;-2.90;1.00
18305;DHT22;9278;52.156;21.048;2022-12-11T14:23:34;-2.90;1.00
18305;DHT22;9278;52.156;21.048;2022-12-11T14:26:12;-2.90;1.00
18305;DHT22;9278;52.156;21.048;2022-12-11T14:28:42;-2.90;1.00
18305;DHT22;9278;52.156;21.048;2022-12-11T14:31:14;-3.00;1.00
18305;DHT22;9278;52.156;21.048;2022-12-11T14:33:46;-3.00;1.00
18305;DHT22;9278;52.156;21.048;2022-12-11T14:36:17;-2.90;1.00
18305;DHT22;9278;52.156;21.048;2022-12-11T14:38:48;-2.90;1.00
18305;DHT22;9278;52.156;21.048;2022-12-11T14:41:22;-3.00;1.00
18305;DHT22;9278;52.156;21.048;2022-12-11T14:43:53;-3.00;1.00
18305;DHT22;9278;52.156;21.048;2022-12-11T14:46:33;-3.00;1.00
18305;DHT22;9278;52.156;21.048;2022-12-11T14:49:07;-2.90;1.00
18305;DHT22;9278;52.156;21.048;2022-12-11T14:51:39;-3.10;1.00
18305;DHT22;9278;52.156;21.048;2022-12-11T14:54:18;-3.00;1.00
18305;DHT22;9278;52.156;21.048;2022-12-11T14:56:49;-3.10;1.00
18305;DHT22;9278;52.156;21.048;2022-12-11T14:59:20;-2.90;1.00
18305;DHT22;9278;52.156;21.048;2022-12-11T15:01:57;-3.00;1.00
18305;DHT22;9278;52.156;21.048;2022-12-11T15:04:30;-3.00;1.00
18305;DHT22;9278;52.156;21.048;2022-12-11T15:07:00;-3.10;1.00
18305;DHT22;9278;52.156;21.048;2022-12-11T15:09:35;-3.00;1.00
18305;DHT22;9278;52.156;21.048;2022-12-11T15:12:09;-3.10;1.00
18305;DHT22;9278;52.156;21.048;2022-12-11T15:14:43;-3.10;1.00
18305;DHT22;9278;52.156;21.048;2022-12-11T15:17:14;-3.00;1.00
18305;DHT22;9278;52.156;21.048;2022-12-11T15:19:46;-3.00;1.00
18305;DHT22;9278;52.156;21.048;2022-12-11T15:22:17;-2.90;1.00
18305;DHT22;9278;52.156;21.048;2022-12-11T15:24:49;-3.10;1.00
18305;DHT22;9278;52.156;21.048;2022-12-11T15:27:24;-3.00;1.00
18305;DHT22;9278;52.156;21.048;2022-12-11T15:29:53;-3.00;1.00
18305;DHT22;9278;52.156;21.048;2022-12-11T15:32:21;-3.10;1.00
18305;DHT22;9278;52.156;21.048;2022-12-11T15:34:51;-3.10;1.00
18305;DHT22;9278;52.156;21.048;2022-12-11T15:37:22;-3.00;1.00
18305;DHT22;9278;52.156;21.048;2022-12-11T15:39:52;-3.00;1.00
18305;DHT22;9278;52.156;21.048;2022-12-11T15:42:24;-3.00;1.00
18305;DHT22;9278;52.156;21.048;2022-12-11T15:44:53;-3.10;1.00
18305;DHT22;9278;52.156;21.048;2022-12-11T15:47:24;-3.10;1.00
18305;DHT22;9278;52.156;21.048;2022-12-11T15:49:54;-3.10;1.00
18305;DHT22;9278;52.156;21.048;2022-12-11T15:52:24;-3.10;1.00
18305;DHT22;9278;52.156;21.048;2022-12-11T15:54:53;-3.10;1.00
18305;DHT22;9278;52.156;21.048;2022-12-11T15:57:22;-3.10;1.00
18305;DHT22;9278;52.156;21.048;2022-12-11T15:59:53;-3.10;1.00
18305;DHT22;9278;52.156;21.048;2022-12-11T16:02:22;-3.20;1.00
18305;DHT22;9278;52.156;21.048;2022-12-11T16:04:54;-3.10;1.00
18305;DHT22;9278;52.156;21.048;2022-12-11T16:07:25;-3.10;1.00
18305;DHT22;9278;52.156;21.048;2022-12-11T16:09:53;-3.00;1.00
18305;DHT22;9278;52.156;21.048;2022-12-11T16:12:21;-3.20;1.00
18305;DHT22;9278;52.156;21.048;2022-12-11T16:14:50;-3.10;1.00
18305;DHT22;9278;52.156;21.048;2022-12-11T16:17:18;-3.20;1.00
18305;DHT22;9278;52.156;21.048;2022-12-11T16:19:46;-3.10;1.00
18305;DHT22;9278;52.156;21.048;2022-12-11T16:22:14;-3.10;1.00
18305;DHT22;9278;52.156;21.048;2022-12-11T16:24:44;-3.10;1.00
18305;DHT22;9278;52.156;21.048;2022-12-11T16:27:12;-3.00;1.00
18305;DHT22;9278;52.156;21.048;2022-12-11T16:29:49;-2.90;1.00
18305;DHT22;9278;52.156;21.048;2022-12-11T16:32:18;-3.50;91.90
18305;DHT22;9278;52.156;21.048;2022-12-11T16:37:15;-2.90;1.00
18305;DHT22;9278;52.156;21.048;2022-12-11T17:31:52;-3.10;99.90
18305;DHT22;9278;52.156;21.048;2022-12-11T18:11:33;-2.90;1.00
18305;DHT22;9278;52.156;21.048;2022-12-11T18:16:33;-3.10;99.90
18305;DHT22;9278;52.156;21.048;2022-12-11T18:21:33;-3.10;1.00
18305;DHT22;9278;52.156;21.048;2022-12-11T18:54:04;-3.20;1.00
18305;DHT22;9278;52.156;21.048;2022-12-11T19:04:01;-3.30;1.00
18305;DHT22;9278;52.156;21.048;2022-12-11T19:09:06;-3.30;1.00
18305;DHT22;9278;52.156;21.048;2022-12-11T19:11:38;-3.30;1.00
18305;DHT22;9278;52.156;21.048;2022-12-11T19:14:07;-3.00;99.90
18305;DHT22;9278;52.156;21.048;2022-12-11T19:16:37;-3.30;29.70
18305;DHT22;9278;52.156;21.048;2022-12-11T19:19:07;-3.30;1.00
18305;DHT22;9278;52.156;21.048;2022-12-11T19:24:10;-3.10;99.90
18305;DHT22;9278;52.156;21.048;2022-12-11T19:29:08;-3.00;66.90
18305;DHT22;9278;52.156;21.048;2022-12-11T19:36:33;-3.40;1.00
18305;DHT22;9278;52.156;21.048;2022-12-11T19:39:03;-3.20;1.00
18305;DHT22;9278;52.156;21.048;2022-12-11T19:41:40;-3.20;1.00
18305;DHT22;9278;52.156;21.048;2022-12-11T19:44:08;-3.10;1.00
18305;DHT22;9278;52.156;21.048;2022-12-11T19:46:37;-3.10;1.00
18305;DHT22;9278;52.156;21.048;2022-12-11T19:49:05;-3.20;1.00
18305;DHT22;9278;52.156;21.048;2022-12-11T19:51:35;-3.20;1.00
18305;DHT22;9278;52.156;21.048;2022-12-11T19:54:05;-3.20;1.00
18305;DHT22;9278;52.156;21.048;2022-12-11T19:56:33;-3.20;1.00
18305;DHT22;9278;52.156;21.048;2022-12-11T19:59:05;-3.20;1.00
18305;DHT22;9278;52.156;21.048;2022-12-11T20:01:36;-3.10;1.00
18305;DHT22;9278;52.156;21.048;2022-12-11T20:04:06;-3.10;1.00
18305;DHT22;9278;52.156;21.048;2022-12-11T20:06:37;-3.10;1.00
18305;DHT22;9278;52.156;21.048;2022-12-11T20:09:07;-3.20;1.00
18305;DHT22;9278;52.156;21.048;2022-12-11T20:11:38;-3.20;1.00
18305;DHT22;9278;52.156;21.048;2022-12-11T20:14:08;-3.20;1.00
18305;DHT22;9278;52.156;21.048;2022-12-11T20:16:36;-3.30;1.00
18305;DHT22;9278;52.156;21.048;2022-12-11T20:19:25;-3.20;1.00
18305;DHT22;9278;52.156;21.048;2022-12-11T20:21:53;-3.10;1.00
18305;DHT22;9278;52.156;21.048;2022-12-11T20:24:22;-3.20;1.00
18305;DHT22;9278;52.156;21.048;2022-12-11T20:26:52;-3.20;1.00
18305;DHT22;9278;52.156;21.048;2022-12-11T20:29:22;-3.20;1.00
18305;DHT22;9278;52.156;21.048;2022-12-11T20:31:50;-3.20;1.00
18305;DHT22;9278;52.156;21.048;2022-12-11T20:34:18;-3.20;1.00
18305;DHT22;9278;52.156;21.048;2022-12-11T20:36:47;-3.30;1.00
18305;DHT22;9278;52.156;21.048;2022-12-11T20:39:15;-3.30;1.00
18305;DHT22;9278;52.156;21.048;2022-12-11T20:41:43;-3.30;1.00
18305;DHT22;9278;52.156;21.048;2022-12-11T20:44:11;-3.30;1.00
18305;DHT22;9278;52.156;21.048;2022-12-11T20:46:41;-3.30;1.00
18305;DHT22;9278;52.156;21.048;2022-12-11T20:49:09;-3.30;1.00
18305;DHT22;9278;52.156;21.048;2022-12-11T20:51:39;-3.10;1.00
18305;DHT22;9278;52.156;21.048;2022-12-11T20:54:08;-3.30;1.00
18305;DHT22;9278;52.156;21.048;2022-12-11T20:56:36;-3.30;1.00
18305;DHT22;9278;52.156;21.048;2022-12-11T20:59:05;-3.30;1.00
18305;DHT22;9278;52.156;21.048;2022-12-11T21:01:33;-3.20;1.00
18305;DHT22;9278;52.156;21.048;2022-12-11T21:04:03;-3.30;1.00
18305;DHT22;9278;52.156;21.048;2022-12-11T21:06:33;-3.30;1.00
18305;DHT22;9278;52.156;21.048;2022-12-11T21:09:04;-3.20;1.00
18305;DHT22;9278;52.156;21.048;2022-12-11T21:11:32;-3.30;1.00
18305;DHT22;9278;52.156;21.048;2022-12-11T21:14:00;-3.00;1.00
18305;DHT22;9278;52.156;21.048;2022-12-11T21:16:29;-3.20;1.00
18305;DHT22;9278;52.156;21.048;2022-12-11T21:18:57;-3.20;1.00
18305;DHT22;9278;52.156;21.048;2022-12-11T21:21:27;-3.10;1.00
18305;DHT22;9278;52.156;21.048;2022-12-11T21:23:55;-3.20;1.00
18305;DHT22;9278;52.156;21.048;2022-12-11T21:26:24;-3.20;1.00
18305;DHT22;9278;52.156;21.048;2022-12-11T21:28:52;-3.20;1.00
18305;DHT22;9278;52.156;21.048;2022-12-11T21:31:20;-3.10;1.00
18305;DHT22;9278;52.156;21.048;2022-12-11T21:33:48;-3.10;1.00
18305;DHT22;9278;52.156;21.048;2022-12-11T21:36:16;-3.20;1.00
18305;DHT22;9278;52.156;21.048;2022-12-11T21:38:46;-3.20;1.00
18305;DHT22;9278;52.156;21.048;2022-12-11T21:41:16;-3.10;1.00
18305;DHT22;9278;52.156;21.048;2022-12-11T21:43:46;-3.10;1.00
18305;DHT22;9278;52.156;21.048;2022-12-11T21:46:34;-3.10;1.00
18305;DHT22;9278;52.156;21.048;2022-12-11T21:49:03;-3.10;1.00
18305;DHT22;9278;52.156;21.048;2022-12-11T21:51:33;-3.10;1.00
18305;DHT22;9278;52.156;21.048;2022-12-11T21:54:12;-3.00;1.00
18305;DHT22;9278;52.156;21.048;2022-12-11T21:56:41;-3.00;1.00
18305;DHT22;9278;52.156;21.048;2022-12-11T21:59:09;-3.00;1.00
18305;DHT22;9278;52.156;21.048;2022-12-11T22:01:39;-3.00;1.00
18305;DHT22;9278;52.156;21.048;2022-12-11T22:04:09;-3.10;99.90
18305;DHT22;9278;52.156;21.048;2022-12-11T22:11:41;-3.20;1.00
18305;DHT22;9278;52.156;21.048;2022-12-11T22:14:11;-3.10;1.00
18305;DHT22;9278;52.156;21.048;2022-12-11T22:24:06;-2.90;79.60
18305;DHT22;9278;52.156;21.048;2022-12-11T22:29:04;-3.00;1.00
18305;DHT22;9278;52.156;21.048;2022-12-11T22:38:59;-3.20;1.00
18305;DHT22;9278;52.156;21.048;2022-12-11T22:41:30;-2.80;1.00
18305;DHT22;9278;52.156;21.048;2022-12-11T22:46:29;-2.80;99.90
18305;DHT22;9278;52.156;21.048;2022-12-11T22:56:23;-2.90;99.90
18305;DHT22;9278;52.156;21.048;2022-12-11T23:01:22;-2.80;99.90
18305;DHT22;9278;52.156;21.048;2022-12-11T23:03:52;-2.90;99.90
18305;DHT22;9278;52.156;21.048;2022-12-11T23:06:22;-2.90;99.90
18305;DHT22;9278;52.156;21.048;2022-12-11T23:11:23;-2.90;99.90
18305;DHT22;9278;52.156;21.048;2022-12-11T23:16:21;-3.20;1.00
18305;DHT22;9278;52.156;21.048;2022-12-11T23:21:20;-2.90;99.90
18305;DHT22;9278;52.156;21.048;2022-12-11T23:28:46;-2.70;1.00
18305;DHT22;9278;52.156;21.048;2022-12-11T23:31:15;-3.10;1.00
18305;DHT22;9278;52.156;21.048;2022-12-11T23:38:42;-3.10;99.90
18305;DHT22;9278;52.156;21.048;2022-12-11T23:43:47;-3.00;1.00
18305;DHT22;9278;52.156;21.048;2022-12-11T23:46:17;-3.10;71.70
18305;DHT22;9278;52.156;21.048;2022-12-11T23:48:45;-3.30;99.90
18305;DHT22;9278;52.156;21.048;2022-12-11T23:51:16;-3.70;99.90
18305;DHT22;9278;52.156;21.048;2022-12-11T23:53:46;-3.00;99.90
18305;DHT22;9278;52.156;21.048;2022-12-11T23:56:16;-2.90;99.90
